Time;durP1;ratioP1;P1;durP2;ratioP2;P2;SDS_P1;SDS_P2;PMS_P1;PMS_P2;Temp;Humidity;BMP_temperature;BMP_pressure;BME280_temperature;BME280_humidity;BME280_pressure;Samples;Min_cycle;Max_cycle;Signal;HPM_P1;HPM_P2
2022/08/12 00:44:55;;;;;;;7.25;6.10;;;22.00;99.90;;;;;;5032903;28;20222;-62
2022/08/12 00:47:22;;;;;;;7.03;5.88;;;22.00;99.90;;;;;;5034724;28;20202;-62
2022/08/12 00:49:48;;;;;;;6.63;6.03;;;22.00;99.90;;;;;;5003977;28;20195;-62
2022/08/12 00:52:15;;;;;;;6.30;5.80;;;21.90;99.90;;;;;;5034529;28;20624;-62
2022/08/12 00:54:48;;;;;;;7.28;6.03;;;21.80;99.90;;;;;;5026113;28;20195;-62
2022/08/12 00:57:21;;;;;;;7.97;6.38;;;21.80;99.90;;;;;;5034756;28;20643;-62
2022/08/12 00:59:48;;;;;;;8.25;6.35;;;21.70;99.90;;;;;;5033512;28;20182;-62
2022/08/12 01:02:34;;;;;;;7.32;6.60;;;21.70;99.90;;;;;;5021434;28;20671;-62
2022/08/12 01:13:26;;;;;;;11.82;7.03;;;21.80;99.90;;;;;;5032538;28;20717;-63
2022/08/12 01:15:56;;;;;;;6.32;5.72;;;21.80;99.90;;;;;;5027814;28;20190;-62
2022/08/12 01:18:25;;;;;;;6.38;5.75;;;21.80;99.90;;;;;;5027854;28;20290;-62
2022/08/12 01:20:50;;;;;;;9.65;6.55;;;21.70;99.90;;;;;;5032430;28;20218;-61
2022/08/12 01:23:25;;;;;;;7.82;6.97;;;21.70;99.90;;;;;;5023315;28;20218;-62
2022/08/12 01:25:54;;;;;;;7.95;6.03;;;21.60;99.90;;;;;;5033042;28;20674;-62
2022/08/12 01:28:25;;;;;;;10.13;6.90;;;21.60;99.90;;;;;;5033403;28;20174;-60
2022/08/12 01:30:53;;;;;;;7.47;6.80;;;21.60;99.90;;;;;;5031387;28;20630;-62
2022/08/12 01:33:24;;;;;;;8.07;6.60;;;21.50;99.90;;;;;;5034356;28;20193;-62
2022/08/12 01:36:03;;;;;;;9.73;5.97;;;21.50;99.90;;;;;;5033671;28;20182;-63
2022/08/12 01:38:34;;;;;;;8.02;6.50;;;21.50;99.90;;;;;;5045681;28;20195;-63
2022/08/12 01:41:01;;;;;;;8.40;5.65;;;21.50;99.90;;;;;;5044090;28;20265;-62
2022/08/12 01:43:29;;;;;;;7.20;6.55;;;21.50;99.90;;;;;;5019249;28;20199;-62
2022/08/12 01:46:28;;;;;;;7.97;6.18;;;21.50;99.90;;;;;;5025923;28;20640;-62
2022/08/12 01:48:53;;;;;;;8.60;7.65;;;21.60;99.90;;;;;;5023869;28;20186;-62
2022/08/12 01:51:39;;;;;;;6.50;6.00;;;21.60;99.90;;;;;;5031972;28;20534;-63
2022/08/12 01:54:12;;;;;;;7.60;6.60;;;21.50;99.90;;;;;;5030741;28;20686;-63
2022/08/12 01:56:51;;;;;;;6.50;5.90;;;21.40;99.90;;;;;;5032116;28;20586;-62
2022/08/12 01:59:46;;;;;;;7.43;6.82;;;21.40;99.90;;;;;;5030441;28;20182;-62
2022/08/12 02:02:26;;;;;;;6.95;6.35;;;21.30;99.90;;;;;;5021953;28;20194;-62
2022/08/12 02:11:46;;;;;;;8.02;7.32;;;21.30;99.90;;;;;;4968070;28;20243;-62
2022/08/12 02:14:23;;;;;;;8.35;7.55;;;21.20;99.90;;;;;;5020346;28;20202;-62
2022/08/12 02:17:34;;;;;;;8.85;7.88;;;21.10;99.90;;;;;;5032417;28;20177;-62
2022/08/12 02:20:23;;;;;;;10.55;7.40;;;21.00;99.90;;;;;;5030777;28;20651;-62
2022/08/12 02:22:51;;;;;;;8.95;6.60;;;21.00;99.90;;;;;;5021969;28;20213;-62
2022/08/12 02:25:28;;;;;;;9.02;8.13;;;20.90;99.90;;;;;;5011774;28;20207;-62
2022/08/12 02:27:55;;;;;;;10.05;7.60;;;20.80;99.90;;;;;;5024545;28;20183;-62
2022/08/12 02:30:30;;;;;;;8.27;7.22;;;20.70;99.90;;;;;;5026549;28;20525;-62
2022/08/12 02:32:58;;;;;;;8.55;7.75;;;20.70;99.90;;;;;;5027661;28;20229;-62
2022/08/12 02:35:26;;;;;;;8.93;6.85;;;20.70;99.90;;;;;;5030462;28;20561;-66
2022/08/12 02:37:55;;;;;;;11.68;6.70;;;20.70;99.90;;;;;;5037749;28;20262;-62
2022/08/12 02:40:23;;;;;;;8.20;7.28;;;20.70;99.90;;;;;;5031925;28;20191;-63
2022/08/12 02:43:16;;;;;;;8.70;7.15;;;20.70;99.90;;;;;;5032370;28;20213;-63
2022/08/12 02:46:01;;;;;;;8.02;7.28;;;20.70;99.90;;;;;;5032360;28;20211;-63
2022/08/12 02:48:34;;;;;;;8.52;7.07;;;20.70;99.90;;;;;;5022275;28;20198;-63
2022/08/12 02:51:04;;;;;;;8.50;7.70;;;20.70;99.90;;;;;;5021447;28;20209;-62
2022/08/12 02:53:33;;;;;;;13.95;7.43;;;20.60;99.90;;;;;;5032068;28;20175;-63
2022/08/12 02:56:03;;;;;;;9.27;7.10;;;20.60;99.90;;;;;;5031803;28;20227;-62
2022/08/12 02:58:34;;;;;;;16.42;8.80;;;20.50;99.90;;;;;;5023675;28;20187;-62
2022/08/12 03:01:01;;;;;;;9.60;7.72;;;20.50;99.90;;;;;;5030619;28;20225;-63
2022/08/12 03:03:32;;;;;;;8.50;7.30;;;20.50;99.90;;;;;;5029570;28;20182;-65
2022/08/12 03:06:06;;;;;;;8.20;7.43;;;20.40;99.90;;;;;;5023763;28;20237;-62
2022/08/12 03:08:44;;;;;;;9.52;7.35;;;20.30;99.90;;;;;;5030393;28;20298;-64
2022/08/12 03:11:18;;;;;;;12.20;7.40;;;20.40;99.90;;;;;;5022629;28;20269;-62
2022/08/12 03:13:56;;;;;;;7.20;6.45;;;20.30;99.90;;;;;;5029278;28;20205;-63
2022/08/12 03:16:24;;;;;;;7.75;6.82;;;20.30;99.90;;;;;;5020590;28;20190;-63
2022/08/12 03:18:50;;;;;;;8.07;7.28;;;20.20;99.90;;;;;;5027865;28;20293;-63
2022/08/12 03:21:17;;;;;;;8.07;7.30;;;20.20;99.90;;;;;;5030115;28;20261;-62
2022/08/12 03:23:45;;;;;;;11.85;7.65;;;20.20;99.90;;;;;;5031824;28;20187;-63
2022/08/12 03:26:13;;;;;;;9.18;8.10;;;20.10;99.90;;;;;;5026549;28;20195;-62
2022/08/12 03:28:49;;;;;;;7.60;6.38;;;20.10;99.90;;;;;;5031925;28;20266;-63
2022/08/12 03:31:17;;;;;;;8.27;7.20;;;20.10;99.90;;;;;;5031332;28;20178;-63
2022/08/12 03:33:46;;;;;;;8.05;6.60;;;20.00;99.90;;;;;;5028074;28;20190;-63
2022/08/12 03:36:17;;;;;;;8.20;7.38;;;20.00;99.90;;;;;;5031046;28;20240;-63
2022/08/12 03:38:49;;;;;;;8.63;7.43;;;20.00;99.90;;;;;;5031680;28;20229;-63
2022/08/12 03:41:35;;;;;;;11.70;8.95;;;20.00;99.90;;;;;;5027521;28;20632;-64
2022/08/12 04:00:45;;;;;;;8.98;7.50;;;19.80;99.90;;;;;;5031984;28;20554;-63
2022/08/12 04:05:56;;;;;;;9.95;6.95;;;19.60;99.90;;;;;;5023522;28;20234;-63
2022/08/12 04:08:25;;;;;;;9.15;7.25;;;19.60;99.90;;;;;;5028954;28;20537;-63
2022/08/12 04:13:39;;;;;;;8.43;7.55;;;19.60;99.90;;;;;;5031336;28;20194;-63
2022/08/12 04:16:08;;;;;;;9.82;7.50;;;19.50;99.90;;;;;;5025035;28;20241;-63
2022/08/12 04:18:37;;;;;;;7.43;6.72;;;19.50;99.90;;;;;;5028539;28;20202;-63
2022/08/12 04:21:11;;;;;;;9.27;8.30;;;19.50;99.90;;;;;;5028080;28;20250;-63
2022/08/12 04:23:41;;;;;;;8.80;7.15;;;19.50;99.90;;;;;;5038009;28;20180;-63
2022/08/12 04:26:07;;;;;;;8.02;7.32;;;19.50;99.90;;;;;;5028644;28;20296;-63
2022/08/12 04:28:34;;;;;;;9.77;8.13;;;19.50;99.90;;;;;;5026203;28;20241;-63
2022/08/12 04:31:00;;;;;;;8.90;7.38;;;19.50;99.90;;;;;;5033893;28;20191;-63
2022/08/12 04:33:26;;;;;;;9.30;8.40;;;19.50;99.90;;;;;;5035073;28;20274;-63
2022/08/12 04:35:53;;;;;;;8.18;7.40;;;19.40;99.90;;;;;;5031864;28;20186;-63
2022/08/12 04:38:20;;;;;;;10.68;7.47;;;19.50;99.90;;;;;;5016915;28;20249;-63
2022/08/12 04:40:45;;;;;;;7.85;7.15;;;19.40;99.90;;;;;;5032295;28;20698;-63
2022/08/12 04:43:11;;;;;;;9.25;7.75;;;19.40;99.90;;;;;;5021062;28;20266;-63
2022/08/12 04:45:39;;;;;;;8.05;7.22;;;19.40;99.90;;;;;;5031137;28;20582;-63
2022/08/12 04:48:05;;;;;;;8.35;7.65;;;19.40;99.90;;;;;;5034848;28;20198;-64
2022/08/12 04:50:32;;;;;;;8.75;6.57;;;19.30;99.90;;;;;;5031588;28;20218;-64
2022/08/12 04:53:01;;;;;;;9.15;8.00;;;19.30;99.90;;;;;;5033502;28;20186;-63
2022/08/12 04:55:28;;;;;;;8.95;7.65;;;19.30;99.90;;;;;;5020992;28;20187;-66
2022/08/12 04:57:54;;;;;;;11.07;7.57;;;19.40;99.90;;;;;;5033672;28;20229;-67
2022/08/12 05:00:20;;;;;;;9.93;7.50;;;19.50;99.90;;;;;;5032660;28;20191;-67
2022/08/12 05:02:46;;;;;;;10.07;7.72;;;19.50;99.90;;;;;;5033163;28;20202;-67
2022/08/12 05:05:21;;;;;;;13.30;7.60;;;19.50;99.90;;;;;;5033022;28;20206;-66
2022/08/12 05:07:47;;;;;;;9.95;7.53;;;19.70;99.90;;;;;;5030985;28;20265;-67
2022/08/12 05:10:12;;;;;;;8.48;7.47;;;19.70;99.90;;;;;;5031141;28;20253;-68
2022/08/12 05:12:41;;;;;;;8.60;7.22;;;19.80;99.90;;;;;;5015293;28;20233;-67
2022/08/12 05:15:07;;;;;;;11.15;8.52;;;19.80;99.90;;;;;;5032730;28;20332;-68
2022/08/12 05:17:33;;;;;;;12.20;7.88;;;19.70;99.90;;;;;;5034258;28;20606;-67
2022/08/12 05:19:59;;;;;;;7.35;6.38;;;19.70;99.90;;;;;;5028505;28;20289;-68
2022/08/12 05:22:26;;;;;;;8.55;7.45;;;19.80;99.90;;;;;;5031953;28;20206;-69
2022/08/12 05:24:52;;;;;;;11.32;7.85;;;19.70;99.90;;;;;;5030618;28;20253;-67
2022/08/12 05:27:18;;;;;;;11.98;7.65;;;19.70;99.90;;;;;;5028273;28;20657;-67
2022/08/12 05:29:48;;;;;;;7.55;6.72;;;19.70;99.90;;;;;;5040022;28;20189;-68
2022/08/12 05:32:19;;;;;;;12.18;8.50;;;19.60;99.90;;;;;;5038043;28;20221;-68
2022/08/12 05:34:49;;;;;;;10.25;8.02;;;19.50;99.90;;;;;;5031476;28;20253;-67
2022/08/12 05:37:15;;;;;;;13.40;7.72;;;19.50;99.90;;;;;;5033789;28;20182;-68
2022/08/12 05:39:41;;;;;;;9.63;8.27;;;19.60;99.90;;;;;;5030555;28;20650;-67
2022/08/12 05:42:08;;;;;;;12.80;6.65;;;19.50;99.90;;;;;;5032260;28;20183;-66
2022/08/12 05:44:34;;;;;;;10.75;8.07;;;19.40;99.90;;;;;;5031416;28;20238;-68
2022/08/12 05:46:59;;;;;;;10.75;8.30;;;19.30;99.90;;;;;;5032490;28;20679;-67
2022/08/12 05:49:25;;;;;;;7.78;6.82;;;19.40;99.90;;;;;;5030807;28;20182;-67
2022/08/12 05:51:51;;;;;;;11.10;8.52;;;19.50;99.90;;;;;;5031777;28;20189;-66
2022/08/12 05:54:17;;;;;;;8.23;7.43;;;19.70;99.90;;;;;;5032273;28;20277;-67
2022/08/12 05:56:44;;;;;;;7.93;6.68;;;19.80;99.90;;;;;;5030538;28;20214;-67
2022/08/12 05:59:11;;;;;;;11.38;8.00;;;19.70;99.90;;;;;;5031702;28;20274;-67
2022/08/12 06:01:38;;;;;;;9.57;8.60;;;19.70;99.90;;;;;;5011741;28;20233;-67
2022/08/12 06:04:04;;;;;;;10.40;8.00;;;19.60;99.90;;;;;;5025139;28;20241;-67
2022/08/12 06:06:41;;;;;;;7.25;6.53;;;19.60;99.90;;;;;;5013550;28;20201;-66
2022/08/12 06:09:09;;;;;;;9.20;7.57;;;19.60;99.90;;;;;;5030609;28;20178;-64
2022/08/12 06:11:36;;;;;;;11.25;7.80;;;19.60;99.90;;;;;;5027583;28;20234;-65
2022/08/12 06:14:02;;;;;;;11.18;7.55;;;19.60;99.90;;;;;;5032316;28;20179;-66
2022/08/12 06:16:31;;;;;;;11.52;7.63;;;19.70;99.90;;;;;;5032452;28;20191;-68
2022/08/12 06:18:57;;;;;;;11.77;9.18;;;19.80;99.90;;;;;;5032543;28;20293;-66
2022/08/12 06:21:23;;;;;;;9.65;8.23;;;19.80;99.90;;;;;;5027416;28;20222;-61
2022/08/12 06:23:50;;;;;;;12.32;9.88;;;19.90;99.90;;;;;;5015897;28;20581;-60
2022/08/12 06:26:19;;;;;;;12.88;7.45;;;20.00;99.90;;;;;;5020762;28;20229;-60
2022/08/12 06:28:49;;;;;;;13.80;9.02;;;20.00;99.90;;;;;;5032675;28;20179;-61
2022/08/12 06:31:19;;;;;;;9.57;7.63;;;20.10;99.90;;;;;;5025246;28;20241;-60
2022/08/12 06:33:47;;;;;;;9.48;8.48;;;20.10;99.90;;;;;;5031981;28;20206;-61
2022/08/12 06:36:16;;;;;;;24.63;8.82;;;20.30;99.90;;;;;;5026373;28;20226;-61
2022/08/12 06:38:43;;;;;;;9.32;8.38;;;20.40;99.90;;;;;;5016381;28;20278;-61
2022/08/12 06:43:55;;;;;;;10.35;8.65;;;20.50;99.90;;;;;;5032218;28;20210;-60
2022/08/12 06:46:22;;;;;;;8.48;7.68;;;20.60;99.90;;;;;;5025311;28;20237;-61
2022/08/12 06:48:54;;;;;;;9.10;7.78;;;20.80;99.90;;;;;;5030250;28;20193;-62
2022/08/12 06:51:20;;;;;;;11.68;8.90;;;21.10;99.90;;;;;;5031764;28;20181;-62
2022/08/12 06:53:46;;;;;;;10.70;8.45;;;21.20;99.90;;;;;;5024016;28;20187;-62
2022/08/12 06:56:12;;;;;;;8.35;7.50;;;21.10;99.90;;;;;;5031000;28;20216;-61
2022/08/12 06:58:38;;;;;;;11.98;8.10;;;21.20;99.90;;;;;;5027251;28;20206;-62
2022/08/12 07:01:05;;;;;;;9.95;7.95;;;21.30;99.90;;;;;;5030215;28;20640;-62
2022/08/12 07:03:31;;;;;;;9.73;8.73;;;21.50;99.90;;;;;;5029635;28;20635;-62
2022/08/12 07:06:02;;;;;;;14.30;9.63;;;21.60;99.90;;;;;;5030926;28;20222;-61
2022/08/12 07:08:33;;;;;;;9.82;7.43;;;21.70;99.90;;;;;;5028681;28;20613;-61
2022/08/12 07:11:01;;;;;;;11.95;7.90;;;21.70;99.90;;;;;;5022062;28;20264;-61
2022/08/12 07:13:42;;;;;;;9.55;8.00;;;21.80;99.90;;;;;;5031548;28;20551;-62
2022/08/12 07:16:12;;;;;;;9.73;8.82;;;21.80;99.90;;;;;;5032829;28;20186;-61
2022/08/12 07:18:39;;;;;;;8.65;7.75;;;21.80;99.90;;;;;;5030068;28;20629;-61
2022/08/12 07:21:06;;;;;;;8.52;7.28;;;21.90;99.90;;;;;;5030033;28;20194;-61
2022/08/12 07:23:34;;;;;;;13.93;8.65;;;22.00;99.90;;;;;;5021725;28;20250;-61
2022/08/12 07:26:02;;;;;;;14.57;7.85;;;22.00;99.90;;;;;;5026080;28;20210;-61
2022/08/12 07:28:32;;;;;;;9.32;7.72;;;22.20;99.90;;;;;;5030972;28;20369;-61
2022/08/12 07:30:58;;;;;;;8.80;7.72;;;22.10;99.90;;;;;;5030260;28;20190;-61
2022/08/12 07:33:27;;;;;;;13.57;8.45;;;22.20;99.90;;;;;;5030214;28;20191;-61
2022/08/12 07:35:56;;;;;;;10.85;7.90;;;22.20;99.90;;;;;;5032250;28;20190;-61
2022/08/12 07:38:32;;;;;;;11.27;7.88;;;22.40;99.90;;;;;;5018298;28;20603;-61
2022/08/12 07:41:11;;;;;;;9.27;7.18;;;23.00;99.90;;;;;;5028668;28;20212;-61
2022/08/12 07:43:39;;;;;;;8.50;7.60;;;24.50;99.90;;;;;;5028410;28;20193;-62
2022/08/12 07:46:06;;;;;;;7.53;6.57;;;26.40;99.90;;;;;;5024027;28;20218;-62
2022/08/12 07:48:39;;;;;;;7.68;6.80;;;27.70;99.90;;;;;;5032147;28;20205;-62
2022/08/12 07:51:06;;;;;;;9.02;6.82;;;28.50;99.90;;;;;;5030299;28;20213;-61
2022/08/12 07:53:32;;;;;;;7.30;5.88;;;29.30;99.90;;;;;;5031130;28;20209;-63
2022/08/12 07:55:58;;;;;;;7.15;6.50;;;30.20;99.90;;;;;;5031240;28;20566;-61
2022/08/12 07:58:24;;;;;;;6.90;6.25;;;31.40;99.90;;;;;;5030091;28;20179;-65
2022/08/12 08:00:51;;;;;;;7.30;6.63;;;32.60;99.90;;;;;;5030539;28;20189;-61
2022/08/12 08:03:17;;;;;;;8.55;6.10;;;33.20;99.90;;;;;;5013552;28;20194;-61
2022/08/12 08:05:45;;;;;;;6.80;5.80;;;33.40;99.90;;;;;;5026817;28;20276;-61
2022/08/12 08:08:26;;;;;;;7.75;6.07;;;33.60;99.90;;;;;;5033291;28;20285;-61
2022/08/12 08:12:52;;;;;;;6.93;5.75;;;33.00;99.90;;;;;;5028001;28;20185;-61
2022/08/12 08:13:41;;;;;;;8.18;5.25;;;33.10;99.80;;;;;;5035484;28;20194;-61
2022/08/12 08:16:08;;;;;;;6.03;5.53;;;33.10;99.80;;;;;;5033487;28;20197;-61
2022/08/12 08:18:35;;;;;;;6.50;5.90;;;33.80;99.90;;;;;;5034927;28;20658;-61
2022/08/12 08:21:00;;;;;;;5.80;5.30;;;34.20;98.70;;;;;;5034480;28;20189;-60
2022/08/12 08:24:13;;;;;;;6.32;5.07;;;33.90;99.00;;;;;;5017074;28;20186;-61
2022/08/12 08:26:14;;;;;;;8.18;5.10;;;33.70;98.70;;;;;;5021227;28;20226;-61
2022/08/12 08:28:41;;;;;;;4.95;4.57;;;34.60;98.20;;;;;;5031000;28;20286;-61
2022/08/12 08:31:07;;;;;;;7.78;4.68;;;34.50;97.70;;;;;;5029878;28;20182;-61
2022/08/12 08:33:32;;;;;;;7.60;4.53;;;34.00;98.10;;;;;;5029405;28;20206;-61
2022/08/12 08:35:59;;;;;;;7.65;5.60;;;34.30;97.60;;;;;;5043861;28;20198;-61
2022/08/12 08:38:25;;;;;;;5.45;5.05;;;34.10;97.20;;;;;;5031059;28;20199;-60
2022/08/12 08:43:35;;;;;;;7.93;5.68;;;34.60;97.20;;;;;;5034094;28;20200;-60
2022/08/12 08:46:04;;;;;;;5.68;4.40;;;34.20;97.10;;;;;;5034455;28;20674;-61
2022/08/12 08:48:31;;;;;;;5.82;4.97;;;34.20;97.30;;;;;;4996859;28;20241;-60
2022/08/12 08:50:58;;;;;;;4.88;4.38;;;35.30;96.50;;;;;;5023880;28;20182;-60
2022/08/12 08:53:24;;;;;;;4.80;3.85;;;35.60;96.10;;;;;;5033186;28;20224;-61
2022/08/12 08:55:52;;;;;;;6.22;5.45;;;35.60;95.80;;;;;;5034582;28;20190;-61
2022/08/12 08:58:20;;;;;;;4.30;3.97;;;36.10;95.50;;;;;;5034660;28;20194;-61
2022/08/12 09:00:49;;;;;;;4.78;4.38;;;35.80;95.50;;;;;;5030269;28;20187;-61
2022/08/12 09:03:15;;;;;;;9.00;4.22;;;35.80;95.10;;;;;;5029088;28;20264;-61
2022/08/12 09:05:40;;;;;;;5.32;4.78;;;35.30;94.80;;;;;;5033641;28;20296;-60
2022/08/12 09:08:06;;;;;;;6.10;3.72;;;33.90;95.70;;;;;;5029962;28;20194;-61
2022/08/12 09:10:32;;;;;;;6.28;5.32;;;33.50;95.90;;;;;;5033765;28;20197;-61
2022/08/12 09:15:44;;;;;;;4.82;4.43;;;34.00;96.60;;;;;;5031367;28;20665;-60
2022/08/12 09:18:11;;;;;;;4.75;4.22;;;34.20;96.40;;;;;;5033875;28;20201;-61
2022/08/12 09:20:38;;;;;;;4.50;4.10;;;33.70;95.90;;;;;;5015167;28;20182;-61
2022/08/12 09:23:08;;;;;;;5.53;5.05;;;32.20;96.60;;;;;;5024986;28;20178;-60
2022/08/12 09:25:34;;;;;;;5.03;4.60;;;31.60;97.40;;;;;;5030025;28;20207;-60
2022/08/12 09:28:01;;;;;;;4.60;3.97;;;31.10;97.00;;;;;;5019959;28;20276;-60
2022/08/12 09:30:29;;;;;;;4.25;3.85;;;30.90;97.10;;;;;;5032555;28;20181;-60
2022/08/12 09:32:55;;;;;;;5.80;4.85;;;30.90;97.70;;;;;;5022911;28;20281;-60
2022/08/12 09:35:30;;;;;;;7.50;4.93;;;30.60;97.90;;;;;;5034287;28;20215;-60
2022/08/12 09:37:56;;;;;;;5.13;3.95;;;30.40;98.30;;;;;;5033385;28;20185;-60
2022/08/12 09:40:24;;;;;;;4.47;4.07;;;30.30;97.80;;;;;;5033122;28;20186;-60
2022/08/12 09:45:35;;;;;;;7.63;4.63;;;29.70;97.80;;;;;;5021984;28;20256;-60
2022/08/12 09:48:07;;;;;;;5.45;4.90;;;29.70;97.50;;;;;;5033381;28;20194;-61
2022/08/12 09:50:34;;;;;;;10.13;5.10;;;29.90;98.20;;;;;;5022772;28;20193;-64
2022/08/12 09:53:09;;;;;;;4.60;4.13;;;30.00;97.80;;;;;;5039051;28;20218;-61
2022/08/12 09:55:36;;;;;;;5.60;4.03;;;30.10;97.60;;;;;;5031627;28;20190;-61
2022/08/12 09:58:04;;;;;;;4.38;3.97;;;30.00;97.60;;;;;;5033080;28;20193;-61
2022/08/12 10:00:33;;;;;;;4.78;3.90;;;29.80;97.20;;;;;;5021840;28;20228;-60
2022/08/12 10:03:11;;;;;;;5.70;4.68;;;29.60;97.00;;;;;;5033039;28;20281;-66
2022/08/12 10:05:42;;;;;;;3.55;3.35;;;29.60;96.60;;;;;;5022821;28;20237;-61
2022/08/12 10:08:09;;;;;;;5.38;4.50;;;29.70;97.00;;;;;;5028101;28;20188;-60
2022/08/12 10:13:40;;;;;;;4.10;3.80;;;29.70;96.50;;;;;;5024105;28;20178;-60
2022/08/12 10:13:41;;;;;;;9.98;3.83;;;29.60;96.30;;;;;;5031993;28;20186;-61
2022/08/12 10:16:20;;;;;;;4.47;3.40;;;29.60;96.30;;;;;;5031854;28;20235;-64
2022/08/12 10:18:52;;;;;;;5.70;3.33;;;29.70;95.70;;;;;;5031723;28;20248;-61
2022/08/12 10:21:19;;;;;;;4.57;3.65;;;29.80;96.00;;;;;;5033613;28;20185;-61
2022/08/12 10:23:47;;;;;;;4.47;4.10;;;30.00;95.50;;;;;;5026200;28;20195;-61
2022/08/12 10:31:45;;;;;;;4.63;4.22;;;30.20;95.40;;;;;;5045328;28;20197;-62
2022/08/12 10:34:12;;;;;;;5.70;3.97;;;30.50;95.60;;;;;;5015583;28;20190;-61
2022/08/12 10:36:39;;;;;;;5.78;4.40;;;30.60;95.60;;;;;;5029962;28;20248;-61
2022/08/12 10:39:08;;;;;;;3.85;3.55;;;30.40;95.10;;;;;;5030999;28;20616;-61
2022/08/12 10:44:18;;;;;;;4.63;4.22;;;30.30;95.50;;;;;;5031883;28;20204;-60
2022/08/12 10:46:48;;;;;;;5.65;4.68;;;30.50;95.50;;;;;;5020274;28;20182;-61
2022/08/12 10:49:15;;;;;;;5.53;3.78;;;30.70;95.40;;;;;;5026876;28;20183;-63
2022/08/12 10:51:40;;;;;;;4.53;3.97;;;30.60;95.00;;;;;;5027974;28;20178;-61
2022/08/12 10:54:07;;;;;;;4.10;3.80;;;30.60;94.70;;;;;;5032789;28;20232;-61
2022/08/12 10:56:33;;;;;;;4.43;3.88;;;30.80;94.80;;;;;;5026774;28;20647;-61
2022/08/12 10:58:59;;;;;;;5.32;3.70;;;30.90;94.60;;;;;;5025690;28;20182;-63
2022/08/12 11:01:26;;;;;;;3.60;3.05;;;30.60;93.70;;;;;;5014202;28;20193;-61
2022/08/12 11:03:52;;;;;;;6.28;3.63;;;30.50;93.60;;;;;;5024203;28;20597;-60
2022/08/12 11:06:20;;;;;;;4.55;4.15;;;30.60;93.40;;;;;;5031578;28;20217;-61
2022/08/12 11:08:46;;;;;;;9.07;3.42;;;30.70;93.30;;;;;;5029723;28;20181;-62
2022/08/12 11:11:16;;;;;;;5.50;3.90;;;30.70;92.40;;;;;;5029995;28;20952;-60
2022/08/12 11:13:44;;;;;;;5.68;3.25;;;30.80;92.30;;;;;;5040543;28;20182;-61
2022/08/12 11:16:09;;;;;;;4.72;3.90;;;31.00;92.10;;;;;;5024642;28;20186;-60
2022/08/12 11:18:36;;;;;;;3.10;2.90;;;31.00;91.70;;;;;;5019661;28;20207;-61
2022/08/12 11:21:01;;;;;;;2.70;2.50;;;30.90;91.60;;;;;;5032276;28;20190;-61
2022/08/12 11:23:27;;;;;;;3.53;3.22;;;30.70;92.00;;;;;;5030275;28;20568;-59
2022/08/12 11:25:53;;;;;;;2.92;2.72;;;30.60;92.30;;;;;;5028837;28;20213;-60
2022/08/12 11:28:18;;;;;;;3.00;2.80;;;30.80;92.10;;;;;;5014135;28;20533;-60
2022/08/12 11:30:44;;;;;;;6.13;3.30;;;30.90;91.80;;;;;;5024304;28;20209;-61
2022/08/12 11:33:11;;;;;;;3.30;3.00;;;30.90;92.20;;;;;;5017708;28;20200;-60
2022/08/12 11:35:46;;;;;;;2.85;2.65;;;31.00;92.30;;;;;;5032145;28;20548;-62
2022/08/12 11:38:11;;;;;;;3.28;2.90;;;31.00;92.30;;;;;;5030258;28;20177;-61
2022/08/12 11:40:37;;;;;;;7.78;3.35;;;31.00;92.30;;;;;;5021905;28;20194;-61
2022/08/12 11:43:03;;;;;;;3.17;2.95;;;30.70;92.20;;;;;;5028991;28;20584;-61
2022/08/12 11:45:29;;;;;;;3.38;3.10;;;30.70;92.20;;;;;;5030897;28;20309;-60
2022/08/12 11:47:58;;;;;;;7.47;3.65;;;30.60;92.20;;;;;;5031711;28;20260;-60
2022/08/12 11:50:24;;;;;;;30.70;4.30;;;30.70;92.20;;;;;;5031069;28;20185;-60
2022/08/12 11:52:50;;;;;;;4.10;3.65;;;30.80;92.40;;;;;;5012806;28;20298;-60
2022/08/12 11:55:17;;;;;;;4.13;2.75;;;30.80;92.10;;;;;;5017213;28;20200;-60
2022/08/12 11:57:54;;;;;;;4.15;3.15;;;30.70;92.50;;;;;;5023188;28;20213;-61
2022/08/12 12:00:21;;;;;;;4.05;3.30;;;30.60;91.90;;;;;;5031014;28;20182;-59
2022/08/12 12:02:47;;;;;;;4.93;3.75;;;30.70;92.20;;;;;;5031553;28;20208;-60
2022/08/12 12:05:14;;;;;;;3.65;3.35;;;30.90;92.50;;;;;;5029335;28;20222;-62
2022/08/12 12:07:42;;;;;;;3.15;2.95;;;31.00;92.80;;;;;;5030709;28;20186;-60
2022/08/12 12:10:08;;;;;;;2.78;2.58;;;31.00;92.70;;;;;;5029934;28;20186;-60
2022/08/12 12:12:34;;;;;;;3.60;3.30;;;31.20;92.40;;;;;;5030959;28;20186;-60
2022/08/12 12:15:00;;;;;;;3.15;2.92;;;31.20;92.10;;;;;;5031307;28;20197;-61
2022/08/12 12:17:27;;;;;;;3.17;2.83;;;31.10;92.10;;;;;;5031218;28;20213;-61
2022/08/12 12:19:53;;;;;;;3.35;3.05;;;31.20;91.90;;;;;;5032441;28;20259;-60
2022/08/12 12:22:20;;;;;;;6.80;3.00;;;31.40;91.80;;;;;;5019689;28;20650;-61
2022/08/12 12:24:47;;;;;;;7.18;3.38;;;31.40;91.30;;;;;;5030343;28;20323;-61
2022/08/12 12:27:16;;;;;;;3.78;3.00;;;31.20;91.80;;;;;;5030368;28;20201;-61
2022/08/12 12:29:42;;;;;;;28.27;3.67;;;31.20;92.40;;;;;;5029826;28;20646;-60
2022/08/12 12:32:07;;;;;;;3.13;2.85;;;31.00;91.10;;;;;;5030211;28;20214;-62
2022/08/12 12:34:33;;;;;;;4.72;2.70;;;31.20;91.10;;;;;;5025559;28;20216;-61
2022/08/12 12:36:59;;;;;;;8.40;2.88;;;31.30;90.80;;;;;;5028359;28;20280;-60
2022/08/12 12:39:24;;;;;;;3.45;2.90;;;31.40;90.90;;;;;;5026330;28;20668;-60
2022/08/12 12:41:50;;;;;;;5.03;3.97;;;31.50;91.60;;;;;;5029635;28;20188;-61
2022/08/12 12:44:16;;;;;;;3.80;3.50;;;31.70;91.40;;;;;;5031959;28;20218;-60
2022/08/12 12:46:41;;;;;;;3.90;3.22;;;31.60;91.40;;;;;;5022652;28;20264;-63
2022/08/12 12:49:07;;;;;;;2.85;2.63;;;31.40;91.30;;;;;;5031385;28;20186;-60
2022/08/12 12:51:33;;;;;;;5.78;2.85;;;31.50;90.70;;;;;;5012820;28;20248;-61
2022/08/12 12:53:58;;;;;;;2.80;2.60;;;31.50;91.40;;;;;;5026703;28;20193;-60
2022/08/12 12:56:24;;;;;;;8.88;3.40;;;31.40;90.80;;;;;;5012826;28;20198;-60
2022/08/12 12:58:51;;;;;;;3.45;3.15;;;31.30;91.30;;;;;;5028077;28;20257;-60
2022/08/12 13:01:21;;;;;;;5.72;2.95;;;31.30;91.40;;;;;;5033888;28;20205;-61
2022/08/12 13:03:52;;;;;;;2.92;2.63;;;31.40;91.60;;;;;;5034071;28;20769;-60
2022/08/12 13:06:24;;;;;;;3.75;2.78;;;31.30;91.30;;;;;;5033826;28;20305;-61
2022/08/12 13:08:52;;;;;;;3.92;3.05;;;31.20;91.10;;;;;;5032399;28;20667;-61
2022/08/12 13:11:19;;;;;;;2.72;2.53;;;31.20;90.70;;;;;;5031762;28;20197;-61
2022/08/12 13:13:48;;;;;;;7.53;4.55;;;31.20;90.70;;;;;;5032310;28;20178;-60
2022/08/12 13:16:19;;;;;;;3.20;3.00;;;31.40;90.70;;;;;;5034423;28;20192;-60
2022/08/12 13:18:49;;;;;;;3.08;2.88;;;31.40;90.20;;;;;;5031986;28;20194;-60
2022/08/12 13:21:16;;;;;;;2.78;2.58;;;31.40;90.40;;;;;;5024515;28;20187;-61
2022/08/12 13:23:46;;;;;;;4.60;4.07;;;31.40;90.30;;;;;;5026978;28;20600;-60
2022/08/12 13:26:12;;;;;;;2.80;2.60;;;31.30;90.50;;;;;;5044343;28;20211;-61
2022/08/12 13:28:41;;;;;;;4.13;2.72;;;31.40;90.30;;;;;;5031535;28;20197;-61
2022/08/12 13:31:07;;;;;;;3.65;2.70;;;31.60;90.40;;;;;;5021208;28;20183;-61
2022/08/12 13:33:33;;;;;;;2.67;2.47;;;31.60;90.50;;;;;;5034298;28;20182;-61
2022/08/12 13:36:00;;;;;;;5.47;2.83;;;31.60;90.30;;;;;;5029592;28;20194;-62
2022/08/12 13:38:40;;;;;;;3.05;2.85;;;31.60;90.10;;;;;;5032240;28;20193;-61
2022/08/12 13:41:08;;;;;;;4.78;3.70;;;31.60;89.30;;;;;;5034393;28;20193;-61
2022/08/12 13:43:34;;;;;;;5.88;2.95;;;31.60;90.00;;;;;;5033571;28;20257;-61
2022/08/12 13:46:00;;;;;;;4.53;2.65;;;31.60;89.10;;;;;;5033241;28;20367;-60
2022/08/12 13:48:27;;;;;;;6.00;2.35;;;31.50;89.20;;;;;;5028268;28;20190;-61
2022/08/12 13:50:52;;;;;;;3.70;3.40;;;31.50;89.80;;;;;;5033924;28;20190;-61
2022/08/12 13:53:18;;;;;;;8.43;4.95;;;31.50;90.10;;;;;;5013217;28;20564;-61
2022/08/12 13:55:48;;;;;;;4.50;2.53;;;31.70;90.20;;;;;;5028751;28;20251;-61
2022/08/12 13:58:23;;;;;;;3.42;2.60;;;31.80;90.10;;;;;;5020398;28;20190;-60
2022/08/12 14:00:51;;;;;;;2.80;2.60;;;31.90;90.00;;;;;;5028193;28;20217;-61
2022/08/12 14:03:20;;;;;;;2.88;2.67;;;31.90;90.00;;;;;;5031057;28;20178;-61
2022/08/12 14:05:46;;;;;;;4.07;3.03;;;31.90;89.20;;;;;;5026433;28;20293;-61
2022/08/12 14:08:14;;;;;;;3.03;2.45;;;32.00;89.70;;;;;;5028087;28;20328;-61
2022/08/12 14:10:54;;;;;;;5.82;2.88;;;31.90;88.80;;;;;;5033040;28;20190;-61
2022/08/12 14:13:23;;;;;;;6.65;3.15;;;31.80;89.80;;;;;;5028885;28;20269;-61
2022/08/12 14:15:56;;;;;;;3.25;2.47;;;32.00;89.30;;;;;;5030065;28;20276;-61
2022/08/12 14:18:25;;;;;;;3.95;2.80;;;31.90;89.50;;;;;;5030975;28;20662;-61
2022/08/12 14:21:00;;;;;;;3.90;3.60;;;31.90;88.30;;;;;;5033505;28;20185;-61
2022/08/12 14:23:41;;;;;;;3.33;3.03;;;31.80;89.10;;;;;;5033051;28;20208;-61
2022/08/12 14:26:09;;;;;;;3.42;3.15;;;31.80;88.90;;;;;;5032308;28;20701;-61
2022/08/12 14:28:36;;;;;;;2.70;2.50;;;31.60;88.40;;;;;;5032685;28;20190;-61
2022/08/12 14:31:10;;;;;;;3.50;3.30;;;31.80;88.60;;;;;;5030977;28;20182;-62
2022/08/12 14:33:47;;;;;;;6.47;3.25;;;31.60;88.30;;;;;;5016469;28;20209;-61
2022/08/12 14:36:15;;;;;;;3.30;2.97;;;31.60;89.60;;;;;;5031783;28;20590;-61